createdAt,value
2023-06-18T00:02:40.460Z,19.05
2023-06-18T00:07:43.397Z,19.12
2023-06-18T00:12:44.968Z,19.14
2023-06-18T00:17:46.594Z,19.16
2023-06-18T00:22:50.602Z,19.20
2023-06-18T00:27:52.292Z,18.94
2023-06-18T00:32:53.974Z,18.96
2023-06-18T00:37:56.963Z,18.80
2023-06-18T00:42:59.268Z,18.69
2023-06-18T00:48:01.321Z,18.77
2023-06-18T00:53:04.348Z,18.77
2023-06-18T00:58:05.980Z,18.64
2023-06-18T01:03:12.366Z,18.66
2023-06-18T01:08:16.441Z,18.78
2023-06-18T01:13:18.083Z,18.67
2023-06-18T01:18:19.935Z,18.58
2023-06-18T01:23:28.246Z,18.61
2023-06-18T01:28:30.007Z,18.57
2023-06-18T01:33:32.233Z,18.54
2023-06-18T01:38:43.706Z,18.63
2023-06-18T01:43:49.103Z,18.77
2023-06-18T01:48:54.899Z,18.34
2023-06-18T01:54:00.395Z,17.97
2023-06-18T01:59:03.032Z,18.30
2023-06-18T02:04:04.955Z,18.31
2023-06-18T02:09:07.930Z,18.21
2023-06-18T02:14:09.517Z,18.28
2023-06-18T02:19:11.174Z,18.27
2023-06-18T02:24:15.490Z,18.18
2023-06-18T02:29:17.127Z,18.27
2023-06-18T02:34:18.807Z,18.31
2023-06-18T02:39:22.757Z,18.01
2023-06-18T02:44:24.295Z,17.19
2023-06-18T02:49:25.893Z,17.39
2023-06-18T02:54:28.886Z,16.97
2023-06-18T02:59:30.495Z,17.37
2023-06-18T03:04:32.112Z,17.48
2023-06-18T03:09:35.162Z,17.45
2023-06-18T03:14:36.802Z,17.05
2023-06-18T03:19:43.677Z,16.74
2023-06-18T03:24:46.664Z,16.81
2023-06-18T03:29:48.316Z,16.70
2023-06-18T03:34:50.006Z,17.15
2023-06-18T03:39:52.974Z,17.25
2023-06-18T03:44:55.152Z,17.01
2023-06-18T03:49:56.888Z,17.06
2023-06-18T03:54:59.902Z,17.07
2023-06-18T04:00:01.935Z,17.06
2023-06-18T04:05:03.730Z,17.03
2023-06-18T04:10:07.641Z,17.28
2023-06-18T04:15:10.148Z,17.17
2023-06-18T04:20:13.349Z,17.14
2023-06-18T04:25:16.672Z,17.33
2023-06-18T04:30:18.917Z,17.41
2023-06-18T04:35:20.479Z,17.35
2023-06-18T04:40:23.825Z,17.40
2023-06-18T04:45:25.642Z,17.60
2023-06-18T04:50:27.247Z,17.57
2023-06-18T04:55:30.259Z,17.40
2023-06-18T05:00:32.062Z,17.33
2023-06-18T05:05:33.715Z,17.78
2023-06-18T05:10:36.937Z,17.95
2023-06-18T05:15:38.839Z,18.34
2023-06-18T05:20:40.461Z,18.45
2023-06-18T05:25:43.538Z,18.58
2023-06-18T05:30:45.152Z,18.38
2023-06-18T05:35:46.798Z,18.50
2023-06-18T05:40:49.789Z,18.63
2023-06-18T05:45:51.494Z,18.95
2023-06-18T05:50:53.146Z,18.97
2023-06-18T05:55:56.064Z,19.28
2023-06-18T06:00:57.714Z,19.58
2023-06-18T06:05:59.350Z,19.68
2023-06-18T06:11:02.321Z,20.10
2023-06-18T06:16:04.202Z,20.77
2023-06-18T06:21:05.784Z,20.64
2023-06-18T06:26:08.970Z,20.59
2023-06-18T06:31:10.611Z,21.29
2023-06-18T06:36:12.249Z,21.92
2023-06-18T06:41:15.229Z,21.92
2023-06-18T06:46:16.813Z,22.21
2023-06-18T06:51:18.469Z,22.32
2023-06-18T07:01:23.406Z,23.76
2023-06-18T07:06:25.325Z,23.59
2023-06-18T07:11:28.329Z,24.06
2023-06-18T07:16:30.146Z,23.57
2023-06-18T07:21:31.768Z,23.53
2023-06-18T07:26:34.779Z,24.71
2023-06-18T07:31:36.453Z,24.17
2023-06-18T07:36:38.256Z,24.08
2023-06-18T07:41:41.230Z,25.14
2023-06-18T07:46:43.111Z,24.34
2023-06-18T07:51:44.889Z,24.86
2023-06-18T07:56:47.927Z,26.41
2023-06-18T08:01:50.209Z,27.52
2023-06-18T08:06:51.948Z,27.74
2023-06-18T08:11:55.002Z,27.78
2023-06-18T08:16:56.630Z,27.77
2023-06-18T08:21:58.282Z,28.01
2023-06-18T08:27:01.503Z,27.59
2023-06-18T08:32:03.126Z,28.18
2023-06-18T08:37:05.537Z,28.37
2023-06-18T08:42:08.918Z,28.13
2023-06-18T08:47:10.673Z,28.84
2023-06-18T08:52:15.032Z,28.88
2023-06-18T08:57:31.992Z,28.47
2023-06-18T09:02:33.544Z,28.44
2023-06-18T09:07:36.593Z,28.23
2023-06-18T09:12:40.431Z,28.15
2023-06-18T09:17:49.654Z,28.62
2023-06-18T09:22:51.455Z,28.58
2023-06-18T09:27:56.710Z,28.89
2023-06-18T09:32:58.719Z,28.37
2023-06-18T09:38:08.799Z,28.30
2023-06-18T09:43:12.577Z,28.65
2023-06-18T09:48:14.374Z,28.92
2023-06-18T09:53:17.915Z,29.40
2023-06-18T09:58:39.510Z,29.38
2023-06-18T10:03:42.311Z,29.93
2023-06-18T10:08:47.151Z,29.74
2023-06-18T10:13:51.578Z,29.62
2023-06-18T10:19:01.463Z,29.71
2023-06-18T10:24:10.450Z,29.55
2023-06-18T10:29:13.854Z,30.21
2023-06-18T10:34:16.028Z,27.98
2023-06-18T10:39:24.909Z,28.83
2023-06-18T10:44:48.686Z,27.55
2023-06-18T10:50:13.146Z,28.84
2023-06-18T10:55:30.447Z,27.84
2023-06-18T11:00:35.883Z,29.10
2023-06-18T11:05:45.096Z,29.52
2023-06-18T11:10:48.194Z,29.42
2023-06-18T11:15:58.836Z,29.97
2023-06-18T11:21:01.898Z,28.99
2023-06-18T11:26:03.605Z,28.86
2023-06-18T11:31:06.631Z,27.12
2023-06-18T11:36:10.221Z,27.69
2023-06-18T11:41:11.866Z,28.72
2023-06-18T11:46:31.701Z,28.97
2023-06-18T11:51:33.575Z,29.09
2023-06-18T11:56:35.303Z,29.22
2023-06-18T12:01:38.252Z,29.15
2023-06-18T12:06:39.919Z,29.40
2023-06-18T12:11:58.506Z,29.07
2023-06-18T12:17:07.719Z,29.65
2023-06-18T12:22:09.473Z,29.91
2023-06-18T12:27:11.193Z,29.41
2023-06-18T12:32:15.249Z,29.08
2023-06-18T12:37:16.847Z,29.74
2023-06-18T12:42:21.445Z,29.75
2023-06-18T12:47:24.486Z,29.84
2023-06-18T12:52:27.292Z,29.53
2023-06-18T12:57:29.125Z,29.98
2023-06-18T13:02:32.131Z,30.11
2023-06-18T13:07:33.885Z,30.08
2023-06-18T13:12:35.679Z,30.06
2023-06-18T13:17:38.877Z,30.14
2023-06-18T13:22:40.857Z,30.44
2023-06-18T13:27:42.510Z,30.41
2023-06-18T13:32:45.610Z,30.41
2023-06-18T13:37:47.267Z,30.57
2023-06-18T13:42:48.853Z,30.32
2023-06-18T13:47:51.826Z,30.31
2023-06-18T13:52:53.564Z,29.42
2023-06-18T13:57:55.229Z,30.11
2023-06-18T14:02:58.357Z,30.15
2023-06-18T14:08:00.042Z,30.47
2023-06-18T14:13:01.629Z,30.34
2023-06-18T14:18:04.889Z,30.51
2023-06-18T14:23:06.510Z,30.13
2023-06-18T14:28:08.122Z,30.19
2023-06-18T14:33:11.133Z,30.06
2023-06-18T14:38:12.771Z,29.98
2023-06-18T14:43:14.412Z,29.96
2023-06-18T14:48:17.316Z,30.02
2023-06-18T14:53:18.923Z,30.09
2023-06-18T14:58:20.589Z,30.28
2023-06-18T15:03:23.765Z,30.59
2023-06-18T15:08:25.488Z,30.58
2023-06-18T15:13:27.141Z,30.75
2023-06-18T15:18:30.215Z,30.49
2023-06-18T15:23:31.798Z,30.55
2023-06-18T15:28:33.386Z,30.55
2023-06-18T15:33:36.386Z,30.49
2023-06-18T15:38:38.056Z,30.67
2023-06-18T15:43:39.640Z,30.57
2023-06-18T15:48:42.674Z,30.78
2023-06-18T15:53:44.309Z,30.72
2023-06-18T15:58:46.004Z,30.95
2023-06-18T16:03:50.081Z,30.86
2023-06-18T16:08:51.680Z,31.07
2023-06-18T16:13:53.585Z,30.75
2023-06-18T16:18:56.978Z,30.58
2023-06-18T16:23:58.543Z,30.74
2023-06-18T16:29:00.209Z,31.01
2023-06-18T16:34:03.142Z,30.78
2023-06-18T16:39:04.786Z,30.40
2023-06-18T16:44:06.351Z,30.52
2023-06-18T16:49:09.366Z,30.01
2023-06-18T16:54:11.048Z,30.19
2023-06-18T16:59:12.611Z,30.13
2023-06-18T17:04:15.624Z,29.47
2023-06-18T17:09:17.229Z,29.53
2023-06-18T17:14:18.812Z,29.47
2023-06-18T17:19:21.806Z,29.73
2023-06-18T17:24:23.371Z,29.69
2023-06-18T17:29:25.062Z,29.26
2023-06-18T17:34:28.001Z,29.31
2023-06-18T17:39:29.918Z,29.26
2023-06-18T17:44:31.599Z,29.22
2023-06-18T17:49:34.548Z,29.16
2023-06-18T17:54:36.209Z,28.71
2023-06-18T17:59:37.774Z,28.50
2023-06-18T18:04:40.702Z,27.90
2023-06-18T18:09:42.338Z,27.58
2023-06-18T18:14:43.997Z,27.92
2023-06-18T18:19:46.953Z,27.41
2023-06-18T18:24:48.608Z,27.42
2023-06-18T18:29:50.196Z,27.32
2023-06-18T18:34:53.112Z,27.24
2023-06-18T18:39:54.891Z,27.04
2023-06-18T18:44:56.445Z,26.83
2023-06-18T18:49:59.347Z,26.97
2023-06-18T18:55:00.923Z,26.75
2023-06-18T19:00:02.610Z,26.28
2023-06-18T19:05:06.725Z,26.46
2023-06-18T19:10:09.102Z,26.33
2023-06-18T19:15:11.653Z,26.20
2023-06-18T19:20:14.705Z,25.66
2023-06-18T19:25:16.373Z,25.54
2023-06-18T19:30:18.072Z,25.71
2023-06-18T19:35:21.117Z,25.40
2023-06-18T19:40:22.989Z,25.35
2023-06-18T19:45:24.825Z,25.21
2023-06-18T19:50:27.849Z,24.91
2023-06-18T19:55:29.405Z,24.93
2023-06-18T20:00:31.102Z,25.00
2023-06-18T20:05:34.129Z,24.84
2023-06-18T20:10:35.731Z,24.92
2023-06-18T20:15:37.335Z,24.76
2023-06-18T20:20:40.603Z,24.69
2023-06-18T20:25:42.171Z,24.65
2023-06-18T20:30:43.765Z,24.74
2023-06-18T20:35:46.701Z,24.94
2023-06-18T20:40:48.262Z,24.87
2023-06-18T20:45:49.964Z,24.74
2023-06-18T20:50:53.072Z,24.82
2023-06-18T20:55:55.614Z,24.78
2023-06-18T21:00:58.849Z,23.93
2023-06-18T21:06:01.826Z,22.47
2023-06-18T21:11:03.399Z,22.80
2023-06-18T21:16:05.220Z,22.71
2023-06-18T21:21:08.221Z,23.19
2023-06-18T21:26:10.023Z,23.35
2023-06-18T21:31:12.246Z,23.02
2023-06-18T21:36:15.434Z,23.38
2023-06-18T21:41:16.997Z,23.73
2023-06-18T21:46:18.614Z,23.86
2023-06-18T21:51:21.714Z,24.00
2023-06-18T21:56:23.320Z,23.81
2023-06-18T22:01:25.064Z,23.75
2023-06-18T22:06:28.067Z,23.78
2023-06-18T22:11:29.681Z,23.88
2023-06-18T22:16:31.357Z,23.95
2023-06-18T22:21:34.460Z,23.57
2023-06-18T22:26:36.644Z,23.85
2023-06-18T22:31:38.370Z,23.89
2023-06-18T22:36:41.412Z,23.93
2023-06-18T22:41:43.029Z,23.87
2023-06-18T22:46:44.635Z,23.86
2023-06-18T22:51:54.448Z,23.95
2023-06-18T22:56:56.118Z,23.83
2023-06-18T23:01:57.698Z,23.71
2023-06-18T23:07:00.648Z,23.56
2023-06-18T23:12:02.261Z,23.43
2023-06-18T23:17:04.385Z,23.19
2023-06-18T23:22:08.212Z,23.34
2023-06-18T23:27:09.940Z,23.22
2023-06-18T23:32:11.560Z,23.31
2023-06-18T23:37:14.573Z,22.93
2023-06-18T23:42:16.166Z,22.84
2023-06-18T23:47:17.824Z,22.88
2023-06-18T23:52:20.737Z,23.00
2023-06-18T23:57:22.331Z,23.06
